Погода Альваро-Обрегонна неделю

Чьяпас, Мексика

21 - 27 февраля
  • 21февраля
    Сегодня
    +22°
    +33°
    Ясно и безоблачно
    ВремяПогодаТемператураВлажностьДавлениеВетер, м/сВероятность осадков
    00:00Ясно и безоблачно+25°C69 %760 мм1.3 м/с2 %
    03:00Ясно и безоблачно+24°C66 %759 мм1.5 м/с2 %
    06:00Ясно и безоблачно+23°C66 %759 мм1.2 м/с2 %
    09:00Ясно и безоблачно+29°C36 %760 мм1.6 м/с2 %
    12:00Ясно и безоблачно+32°C27 %759 мм2.3 м/с2 %
    15:00Ясно и безоблачно+31°C39 %757 мм4.4 м/с2 %
    18:00Ясно и безоблачно+28°C50 %758 мм1.9 м/с2 %
    21:00Ясно и безоблачно+26°C67 %759 мм1.0 м/с2 %
  • 22февраля
    Четверг
    +22°
    +32°
    Ясно и безоблачно
    ВремяПогодаТемператураВлажностьДавлениеВетер, м/сВероятность осадков
    00:00Ясно и безоблачно+25°C70 %759 мм0.1 м/с2 %
    03:00Ясно и безоблачно+23°C64 %758 мм0.4 м/с2 %
    06:00Ясно и безоблачно+22°C62 %758 мм2.2 м/с2 %
    09:00Ясно и безоблачно+29°C38 %759 мм1.8 м/с2 %
    12:00Ясно и безоблачно+31°C36 %757 мм3.3 м/с2 %
    15:00Ясно и безоблачно+30°C50 %756 мм3.8 м/с2 %
    18:00Ясно и безоблачно+28°C67 %756 мм1.9 м/с2 %
    21:00Ясно и безоблачно+26°C84 %757 мм0.4 м/с2 %
  • 23февраля
    Пятница
    +22°
    +31°
    Ясно и безоблачно
    ВремяПогодаТемператураВлажностьДавлениеВетер, м/сВероятность осадков
    00:00Ясно и безоблачно+25°C85 %757 мм1.0 м/с2 %
    03:00Ясно и безоблачно+23°C89 %756 мм0.8 м/с2 %
    06:00Ясно и безоблачно+22°C94 %757 мм0.8 м/с2 %
    09:00Ясно и безоблачно+29°C61 %758 мм0.6 м/с2 %
    12:00Ясно и безоблачно+31°C43 %757 мм2.6 м/с2 %
    15:00Ясно и безоблачно+30°C53 %755 мм3.9 м/с2 %
    18:00Ясно и безоблачно+28°C64 %756 мм2.5 м/с2 %
    21:00Ясно и безоблачно+26°C78 %757 мм1.2 м/с2 %
  • 24февраля
    Суббота
    +22°
    +32°
    Ясно и безоблачно
    ВремяПогодаТемператураВлажностьДавлениеВетер, м/сВероятность осадков
    00:00Ясно и безоблачно+25°C84 %758 мм1.5 м/с2 %
    03:00Ясно и безоблачно+23°C86 %757 мм1.3 м/с2 %
    06:00Ясно и безоблачно+22°C83 %758 мм1.8 м/с2 %
    09:00Ясно и безоблачно+29°C56 %759 мм0.8 м/с2 %
    12:00Ясно и безоблачно+31°C43 %758 мм2.8 м/с2 %
    15:00Ясно и безоблачно+30°C52 %757 мм4.1 м/с2 %
    18:00Ясно и безоблачно+28°C64 %758 мм2.3 м/с4 %
    21:00Ясно и безоблачно+27°C79 %759 мм1.2 м/с3 %
  • 25февраля
    Воскресенье
    +24°
    +32°
    Ясно и безоблачно
    ВремяПогодаТемператураВлажностьДавлениеВетер, м/сВероятность осадков
    00:00Ясно и безоблачно+25°C78 %759 мм1.7 м/с2 %
    03:00Ясно и безоблачно+24°C77 %758 мм1.4 м/с2 %
    06:00Ясно и безоблачно+23°C79 %759 мм1.3 м/с2 %
    09:00Ясно и безоблачно+29°C49 %760 мм0.3 м/с2 %
    12:00Ясно и безоблачно+31°C38 %759 мм3.0 м/с2 %
    15:00Ясно и безоблачно+30°C51 %757 мм3.9 м/с2 %
    18:00Ясно и безоблачно+28°C68 %758 мм2.5 м/с2 %
    21:00Ясно и безоблачно+27°C80 %759 мм0.6 м/с3 %
Мы используем cookies
Соглашаюсь